Richmond Hill, North Carolina
Current Conditions -  °F | °C
As of 12:15 PM on Sunday 23 Nov 2014 (Local Time) from KMWK Reporting Station
Light Rain Light Rain  
Wind Chill: 43°   Ceiling: 2400
Heat Index: 43°   Visibility: 7mi
Dew Point: 37°   Wind: 3mph
Humidity: 81%   Direction: 340°NNW
Pressure: 30.15"   Gusts: NA
Location:  36.2374°N, 80.6343°W
Report Text: KMWK 231715Z AUTO 34003KT 7SM -RA SCT012 BKN024 OVC048 06/03 A3015 RMK AO2 T00600030
Loading
Personal Weather Stations






























Interactive Weather Map New forecast layout! Learn more

10-Day Weather Forecast

Advertisements
Track Severe Weather on mobile